Time;durP1;ratioP1;P1;durP2;ratioP2;P2;SDS_P1;SDS_P2;PMS_P1;PMS_P2;Temp;Humidity;BMP_temperature;BMP_pressure;BME280_temperature;BME280_humidity;BME280_pressure;Samples;Min_cycle;Max_cycle;Signal;HPM_P1;HPM_P2
2022/08/30 00:02:26;;;;;;;7.57;6.95;;;;;;;16.37;100.00;101939.22;5182585;28;20100;-62
2022/08/30 00:05:00;;;;;;;9.98;6.68;;;;;;;16.48;100.00;101946.31;5187213;28;20069;-63
2022/08/30 00:07:30;;;;;;;7.93;7.03;;;;;;;16.50;100.00;101941.41;5187224;28;20536;-63
2022/08/30 00:10:01;;;;;;;8.43;7.13;;;;;;;16.48;100.00;101948.22;5187044;28;20025;-62
2022/08/30 00:12:32;;;;;;;5.15;4.85;;;;;;;16.44;100.00;101945.25;5187100;28;20029;-62
2022/08/30 00:15:04;;;;;;;8.23;7.22;;;;;;;16.40;100.00;101941.41;5186531;28;20101;-63
2022/08/30 00:17:34;;;;;;;7.18;6.47;;;;;;;16.33;100.00;101946.28;5186745;28;20021;-64
2022/08/30 00:20:09;;;;;;;5.80;5.30;;;;;;;16.27;100.00;101947.38;5186831;28;20021;-63
2022/08/30 00:22:40;;;;;;;6.68;4.97;;;;;;;16.18;100.00;101943.50;5185309;28;20052;-63
2022/08/30 00:25:11;;;;;;;9.25;7.00;;;;;;;16.12;100.00;101939.16;5186341;28;20021;-64
2022/08/30 00:27:42;;;;;;;7.43;6.93;;;;;;;16.08;100.00;101941.59;5186618;28;20549;-64
2022/08/30 00:30:13;;;;;;;6.13;5.78;;;;;;;16.09;100.00;101948.66;5186900;28;20025;-64
2022/08/30 00:32:44;;;;;;;6.55;5.93;;;;;;;16.07;100.00;101944.56;5186394;28;20105;-64
2022/08/30 00:35:19;;;;;;;9.68;7.65;;;;;;;16.02;100.00;101933.63;5185919;28;20105;-64
2022/08/30 00:37:50;;;;;;;7.55;6.90;;;;;;;16.05;100.00;101933.13;5186409;28;20097;-64
2022/08/30 00:40:21;;;;;;;7.60;6.80;;;;;;;15.96;100.00;101923.81;5184736;28;20060;-64
2022/08/30 00:42:51;;;;;;;20.30;7.60;;;;;;;15.99;100.00;101932.28;5186094;28;20049;-66
2022/08/30 00:45:26;;;;;;;11.52;7.13;;;;;;;16.04;100.00;101945.91;5185540;28;20422;-64
2022/08/30 00:47:57;;;;;;;11.35;7.30;;;;;;;16.06;100.00;101948.38;5185737;28;20053;-64
2022/08/30 00:53:23;;;;;;;13.90;7.65;;;;;;;16.02;100.00;101939.91;5281864;22;20111;-62
2022/08/30 00:55:54;;;;;;;9.13;8.30;;;;;;;16.13;100.00;101955.22;5229304;28;20048;-64
2022/08/30 00:58:32;;;;;;;10.43;5.93;;;;;;;16.11;100.00;101942.97;5228726;28;20117;-64
2022/08/30 01:01:06;;;;;;;7.95;6.35;;;;;;;16.19;100.00;101945.97;5228538;28;20021;-62
2022/08/30 01:03:37;;;;;;;7.90;7.20;;;;;;;16.28;100.00;101959.09;5227040;28;20103;-63
2022/08/30 01:06:08;;;;;;;7.85;7.13;;;;;;;16.28;100.00;101956.34;5229383;28;20025;-62
2022/08/30 01:08:39;;;;;;;7.07;6.20;;;;;;;16.36;100.00;101955.84;5228847;28;20111;-63
2022/08/30 01:11:11;;;;;;;17.48;8.13;;;;;;;16.37;100.00;101957.50;5229114;28;20020;-62
2022/08/30 01:13:42;;;;;;;13.30;5.93;;;;;;;16.31;100.00;101953.91;5228060;28;20424;-65
2022/08/30 01:16:13;;;;;;;8.52;7.07;;;;;;;16.32;100.00;101965.66;5228640;28;20357;-65
2022/08/30 01:18:44;;;;;;;7.18;6.63;;;;;;;16.25;100.00;101951.44;5227935;28;20384;-62
2022/08/30 01:21:33;;;;;;;8.32;6.07;;;;;;;16.25;100.00;101959.63;5236405;22;20407;-63
2022/08/30 01:24:05;;;;;;;5.32;5.00;;;;;;;16.19;100.00;101951.41;5225533;28;20423;-62
2022/08/30 01:26:36;;;;;;;13.90;6.20;;;;;;;16.14;100.00;101948.69;5226551;28;20489;-64
2022/08/30 01:29:10;;;;;;;10.65;6.15;;;;;;;16.10;100.00;101958.47;5226347;28;20119;-64
2022/08/30 01:31:41;;;;;;;7.22;5.85;;;;;;;16.04;100.00;101945.91;5226222;28;20112;-64
2022/08/30 01:34:11;;;;;;;7.22;6.70;;;;;;;16.09;100.00;101945.94;5225911;28;20108;-64
2022/08/30 01:36:44;;;;;;;6.75;6.07;;;;;;;16.08;100.00;101951.66;5226089;28;20464;-64
2022/08/30 01:39:17;;;;;;;8.43;7.57;;;;;;;16.06;100.00;101951.09;5208013;28;20028;-65
2022/08/30 01:41:47;;;;;;;7.32;6.68;;;;;;;16.03;100.00;101943.47;5208183;28;20021;-64
2022/08/30 01:44:18;;;;;;;6.45;5.05;;;;;;;15.98;100.00;101943.44;5225565;28;20070;-63
2022/08/30 01:46:48;;;;;;;9.48;6.95;;;;;;;15.94;100.00;101942.31;5225531;28;20021;-64
2022/08/30 01:49:19;;;;;;;9.07;6.38;;;;;;;15.92;100.00;101939.03;5207536;28;20131;-66
2022/08/30 01:51:49;;;;;;;8.27;7.55;;;;;;;15.94;100.00;101937.69;5225733;28;20025;-64
2022/08/30 01:54:20;;;;;;;7.13;6.53;;;;;;;15.96;100.00;101943.69;5225494;28;20112;-64
2022/08/30 01:56:51;;;;;;;8.43;7.72;;;;;;;15.97;100.00;101934.44;5225867;28;20032;-64
2022/08/30 01:59:21;;;;;;;9.27;5.90;;;;;;;15.96;100.00;101940.16;5224875;28;20030;-66
2022/08/30 02:01:52;;;;;;;7.35;6.75;;;;;;;15.95;100.00;101936.59;5231223;28;20025;-65
2022/08/30 02:04:22;;;;;;;7.32;6.78;;;;;;;15.82;100.00;101923.47;5229259;28;20040;-65
2022/08/30 02:06:53;;;;;;;6.95;6.07;;;;;;;15.91;100.00;101940.13;5225710;28;20021;-64
2022/08/30 02:09:23;;;;;;;7.78;7.20;;;;;;;15.89;100.00;101934.94;5225492;28;20035;-64
2022/08/30 02:11:54;;;;;;;8.27;7.57;;;;;;;15.87;100.00;101931.69;5225506;28;20070;-64
2022/08/30 02:14:24;;;;;;;6.75;6.32;;;;;;;15.86;100.00;101939.03;5225954;28;20455;-65
2022/08/30 02:16:55;;;;;;;8.90;5.40;;;;;;;15.85;100.00;101934.69;5225836;28;20443;-64
2022/08/30 02:19:25;;;;;;;16.15;6.07;;;;;;;15.76;100.00;101928.09;5225797;28;20016;-64
2022/08/30 02:21:55;;;;;;;8.48;7.78;;;;;;;15.83;100.00;101936.03;5225587;28;20045;-63
2022/08/30 02:24:26;;;;;;;6.70;5.82;;;;;;;15.80;100.00;101931.09;5225123;28;20031;-63
2022/08/30 02:26:56;;;;;;;7.35;6.82;;;;;;;15.75;100.00;101931.88;5224651;28;20032;-62
2022/08/30 02:29:28;;;;;;;10.68;7.03;;;;;;;15.77;100.00;101931.63;5224886;28;20025;-65
2022/08/30 02:31:59;;;;;;;7.18;6.60;;;;;;;15.76;100.00;101935.44;5225106;28;20497;-63
2022/08/30 02:34:29;;;;;;;7.70;5.80;;;;;;;15.76;100.00;101935.44;5206861;28;20120;-65
2022/08/30 02:37:00;;;;;;;7.93;7.13;;;;;;;15.73;100.00;101933.22;5224770;28;20025;-65
2022/08/30 02:39:30;;;;;;;7.60;7.00;;;;;;;15.68;100.00;101927.75;5225057;28;20596;-64
2022/08/30 02:42:01;;;;;;;9.85;7.07;;;;;;;15.62;100.00;101926.06;5225034;28;20143;-64
2022/08/30 02:44:31;;;;;;;12.43;7.10;;;;;;;15.56;100.00;101924.41;5224719;28;20396;-64
2022/08/30 02:47:02;;;;;;;6.70;6.30;;;;;;;15.46;100.00;101914.25;5224936;28;20116;-64
2022/08/30 02:49:32;;;;;;;5.78;5.45;;;;;;;15.45;100.00;101916.16;5206665;28;20029;-64
2022/08/30 02:52:04;;;;;;;8.93;7.55;;;;;;;15.41;100.00;101914.22;5224826;28;20078;-64
2022/08/30 02:54:34;;;;;;;6.47;6.00;;;;;;;15.37;100.00;101924.00;5224055;28;20374;-65
2022/08/30 02:57:05;;;;;;;6.43;6.03;;;;;;;15.34;100.00;101917.16;5206566;28;20028;-64
2022/08/30 02:59:40;;;;;;;12.57;7.57;;;;;;;15.33;100.00;101912.81;5224296;28;20326;-62
2022/08/30 03:02:11;;;;;;;7.75;7.15;;;;;;;15.32;100.00;101910.34;5224341;28;20028;-62
2022/08/30 03:04:43;;;;;;;10.38;7.25;;;;;;;15.28;100.00;101911.97;5224294;28;20397;-63
2022/08/30 03:07:15;;;;;;;7.47;7.00;;;;;;;15.27;100.00;101916.59;5224413;28;20035;-63
2022/08/30 03:09:45;;;;;;;9.27;7.25;;;;;;;15.23;100.00;101899.16;5224467;28;20108;-65
2022/08/30 03:12:15;;;;;;;9.00;6.80;;;;;;;15.28;100.00;101909.25;5205838;28;20545;-64
2022/08/30 03:14:47;;;;;;;7.13;6.60;;;;;;;15.21;100.00;101898.59;5223987;28;20025;-63
2022/08/30 03:17:17;;;;;;;6.95;6.38;;;;;;;15.30;100.00;101916.06;5224272;28;20511;-63
2022/08/30 03:19:48;;;;;;;7.43;6.78;;;;;;;15.32;100.00;101913.88;5224190;28;20033;-65
2022/08/30 03:22:18;;;;;;;7.63;7.15;;;;;;;15.33;100.00;101915.53;5223858;28;20029;-64
2022/08/30 03:24:48;;;;;;;7.15;6.60;;;;;;;15.34;100.00;101910.91;5223506;28;20345;-62
2022/08/30 03:27:19;;;;;;;8.25;7.40;;;;;;;15.35;100.00;101902.47;5223703;28;20122;-63
2022/08/30 03:29:49;;;;;;;7.03;6.38;;;;;;;15.36;100.00;101904.13;5224343;28;20032;-63
2022/08/30 03:32:20;;;;;;;9.30;5.85;;;;;;;15.40;100.00;101905.25;5206377;28;20023;-63
2022/08/30 03:34:51;;;;;;;8.25;7.35;;;;;;;15.42;100.00;101907.69;5223676;28;20079;-64
2022/08/30 03:37:21;;;;;;;12.15;8.13;;;;;;;15.43;100.00;101899.28;5223521;28;20139;-63
2022/08/30 03:39:53;;;;;;;8.30;7.55;;;;;;;15.49;100.00;101906.38;5224233;28;20161;-63
2022/08/30 03:42:23;;;;;;;7.78;7.13;;;;;;;15.51;100.00;101898.78;5224210;28;20464;-64
2022/08/30 03:44:54;;;;;;;8.25;7.70;;;;;;;15.51;100.00;101900.69;5223678;28;20032;-64
2022/08/30 03:47:24;;;;;;;6.82;6.32;;;;;;;15.47;100.00;101896.84;5223999;28;20104;-63
2022/08/30 03:49:55;;;;;;;10.30;6.93;;;;;;;15.44;100.00;101909.06;5205783;28;20060;-63
2022/08/30 03:52:26;;;;;;;7.40;6.97;;;;;;;15.40;100.00;101901.69;5224190;28;20120;-65
2022/08/30 03:54:56;;;;;;;6.63;6.00;;;;;;;15.31;100.00;101904.06;5223786;28;20048;-63
2022/08/30 03:57:28;;;;;;;7.47;6.90;;;;;;;15.33;100.00;101903.81;5223500;28;20208;-63
2022/08/30 03:59:58;;;;;;;8.77;7.45;;;;;;;15.33;100.00;101910.09;5206010;28;20477;-64
2022/08/30 04:02:29;;;;;;;12.27;8.57;;;;;;;15.31;100.00;101912.25;5205658;28;20025;-63
2022/08/30 04:04:59;;;;;;;6.47;6.07;;;;;;;15.30;100.00;101915.25;5223669;28;20039;-64
2022/08/30 04:07:29;;;;;;;7.80;7.13;;;;;;;15.22;100.00;101896.69;5223808;28;20029;-63
2022/08/30 04:10:00;;;;;;;8.80;6.55;;;;;;;15.22;100.00;101907.56;5223742;28;20025;-63
2022/08/30 04:12:31;;;;;;;16.13;7.57;;;;;;;15.23;100.00;101910.03;5223761;28;20143;-64
2022/08/30 04:15:02;;;;;;;6.35;5.95;;;;;;;15.25;100.00;101913.31;5204711;28;20103;-63
2022/08/30 04:17:32;;;;;;;6.60;6.18;;;;;;;15.23;100.00;101915.47;5223982;28;20513;-62
2022/08/30 04:20:03;;;;;;;15.60;8.63;;;;;;;15.24;100.00;101911.69;5223412;28;20025;-63
2022/08/30 04:22:33;;;;;;;7.63;7.10;;;;;;;15.26;100.00;101909.50;5223391;28;20499;-64
2022/08/30 04:25:05;;;;;;;8.45;7.65;;;;;;;15.25;100.00;101909.78;5223320;28;20033;-64
2022/08/30 04:27:36;;;;;;;12.57;9.43;;;;;;;15.23;100.00;101920.91;5223073;28;20079;-64
2022/08/30 04:30:07;;;;;;;6.90;6.35;;;;;;;15.21;100.00;101917.63;5205537;28;20049;-63
2022/08/30 04:32:37;;;;;;;9.25;7.82;;;;;;;15.16;100.00;101925.75;5223642;28;20024;-63
2022/08/30 04:35:08;;;;;;;8.70;7.60;;;;;;;15.04;100.00;101911.50;5223368;28;20033;-65
2022/08/30 04:37:39;;;;;;;7.53;6.93;;;;;;;14.97;100.00;101910.94;5205556;28;20116;-64
2022/08/30 04:40:10;;;;;;;12.85;7.35;;;;;;;15.09;100.00;101930.59;5204543;28;20058;-63
2022/08/30 04:42:42;;;;;;;8.05;7.35;;;;;;;15.04;100.00;101931.38;5223420;28;20037;-62
2022/08/30 04:45:15;;;;;;;8.45;7.90;;;;;;;15.01;100.00;101928.38;5223176;28;20020;-62
2022/08/30 04:47:45;;;;;;;9.73;8.73;;;;;;;14.86;100.00;101912.72;5260416;22;20043;-79
2022/08/30 04:50:18;;;;;;;8.80;8.25;;;;;;;14.96;100.00;101926.41;5244567;28;20028;-80
2022/08/30 04:52:49;;;;;;;7.63;7.00;;;;;;;14.77;100.00;101898.78;5235206;28;20104;-79
2022/08/30 04:55:20;;;;;;;11.02;9.95;;;;;;;14.93;100.00;101932.38;5233860;28;20079;-80
2022/08/30 04:57:51;;;;;;;8.88;8.05;;;;;;;14.96;100.00;101936.47;5216831;28;20017;-80
2022/08/30 05:00:22;;;;;;;9.98;9.18;;;;;;;14.98;100.00;101942.50;5234671;28;20112;-80
2022/08/30 05:02:52;;;;;;;9.23;8.52;;;;;;;14.95;100.00;101932.13;5234543;28;20068;-80
2022/08/30 05:05:38;;;;;;;10.00;9.05;;;;;;;15.08;100.00;101945.28;5233595;28;20017;-81
2022/08/30 05:08:14;;;;;;;14.30;8.95;;;;;;;15.08;100.00;101939.84;5234201;28;20032;-81
2022/08/30 05:10:48;;;;;;;10.00;9.30;;;;;;;15.17;100.00;101933.66;5235080;28;20025;-81
2022/08/30 05:13:20;;;;;;;18.95;9.02;;;;;;;15.19;100.00;101936.94;5234071;28;20029;-81
2022/08/30 05:15:50;;;;;;;8.60;8.00;;;;;;;15.27;100.00;101943.00;5217062;28;20089;-81
2022/08/30 05:18:21;;;;;;;10.23;9.48;;;;;;;15.22;100.00;101927.44;5235505;28;20470;-81
2022/08/30 05:21:11;;;;;;;8.88;8.15;;;;;;;15.37;100.00;101951.22;5216369;28;20021;-81
2022/08/30 05:23:42;;;;;;;8.85;8.25;;;;;;;15.35;100.00;101940.59;5234469;28;20033;-82
2022/08/30 05:26:17;;;;;;;9.25;8.50;;;;;;;15.39;100.00;101946.31;5235090;28;20028;-82
2022/08/30 05:28:48;;;;;;;7.95;7.35;;;;;;;15.42;100.00;101946.63;5240567;28;20025;-81
2022/08/30 05:31:28;;;;;;;9.02;8.02;;;;;;;15.54;100.00;101954.63;5239853;28;20383;-82
2022/08/30 05:33:59;;;;;;;9.20;8.52;;;;;;;15.50;100.00;101943.41;5240218;28;20037;-83
2022/08/30 05:36:32;;;;;;;9.55;8.80;;;;;;;15.59;100.00;101951.13;5238696;28;20395;-81
2022/08/30 05:39:04;;;;;;;8.90;8.13;;;;;;;15.46;100.00;101928.69;5239019;28;20021;-82
2022/08/30 05:41:36;;;;;;;10.10;9.13;;;;;;;15.53;100.00;101939.34;5220497;28;20048;-83
2022/08/30 05:44:08;;;;;;;8.23;7.63;;;;;;;15.56;100.00;101947.03;5220132;28;20111;-82
2022/08/30 05:46:41;;;;;;;8.32;7.50;;;;;;;15.68;100.00;101963.16;5238745;28;20029;-82
2022/08/30 05:49:12;;;;;;;9.93;9.18;;;;;;;15.67;100.00;101964.25;5221234;28;20025;-81
2022/08/30 05:51:43;;;;;;;11.07;10.27;;;;;;;15.44;100.00;101922.69;5219834;28;20021;-82
2022/08/30 05:54:14;;;;;;;8.38;7.75;;;;;;;15.66;100.00;101957.97;5234463;28;20025;-82
2022/08/30 05:56:45;;;;;;;9.38;8.63;;;;;;;15.67;100.00;101954.16;5231924;28;20052;-82
2022/08/30 05:59:15;;;;;;;9.80;8.82;;;;;;;15.62;100.00;101945.97;5211926;28;20047;-82
2022/08/30 06:01:46;;;;;;;7.57;6.97;;;;;;;15.66;100.00;101948.97;5232348;28;20119;-82
2022/08/30 06:04:16;;;;;;;10.15;9.32;;;;;;;15.64;100.00;101953.88;5215772;28;20029;-82
2022/08/30 06:06:47;;;;;;;9.27;8.43;;;;;;;15.57;100.00;101942.41;5237679;28;20060;-80
2022/08/30 06:09:17;;;;;;;9.15;8.45;;;;;;;15.58;100.00;101954.94;5238706;28;20020;-82
2022/08/30 06:11:48;;;;;;;10.18;8.60;;;;;;;15.47;100.00;101941.22;5236998;28;20021;-81
2022/08/30 06:14:18;;;;;;;10.00;9.10;;;;;;;15.61;100.00;101949.75;5237116;28;20029;-82
2022/08/30 06:16:50;;;;;;;9.98;9.00;;;;;;;15.70;100.00;101961.00;5217141;28;20025;-82
2022/08/30 06:19:22;;;;;;;10.73;9.90;;;;;;;15.65;100.00;101944.63;5232562;28;20039;-81
2022/08/30 06:21:52;;;;;;;15.13;10.73;;;;;;;15.69;100.00;101940.28;5232420;28;20025;-82
2022/08/30 06:24:22;;;;;;;9.75;9.15;;;;;;;15.81;100.00;101943.63;5231136;28;20059;-82
2022/08/30 06:26:53;;;;;;;9.55;8.90;;;;;;;15.85;100.00;101942.84;5231758;28;20029;-81
2022/08/30 06:29:23;;;;;;;11.95;10.95;;;;;;;15.99;100.00;101948.63;5214525;28;20029;-81
2022/08/30 06:31:56;;;;;;;8.68;8.00;;;;;;;16.03;100.00;101938.81;5233024;28;20025;-81
2022/08/30 06:34:27;;;;;;;10.20;9.23;;;;;;;16.03;100.00;101919.75;5232946;28;20029;-81
2022/08/30 06:36:57;;;;;;;9.82;8.93;;;;;;;16.19;100.00;101934.25;5214684;28;20178;-81
2022/08/30 06:39:28;;;;;;;8.48;7.93;;;;;;;16.23;100.00;101929.06;5233092;28;20021;-81
2022/08/30 06:41:58;;;;;;;9.98;9.25;;;;;;;16.31;100.00;101939.47;5235297;28;20048;-81
2022/08/30 06:44:29;;;;;;;9.70;9.00;;;;;;;16.40;100.00;101943.31;5215791;28;20025;-81
2022/08/30 06:46:59;;;;;;;11.55;10.52;;;;;;;16.58;100.00;101944.72;5233152;28;20028;-81
2022/08/30 06:49:29;;;;;;;9.95;9.20;;;;;;;16.55;100.00;101935.16;5233865;28;20173;-82
2022/08/30 06:52:00;;;;;;;10.63;9.23;;;;;;;16.70;100.00;101935.25;5234404;28;20025;-83
2022/08/30 06:54:30;;;;;;;9.55;8.90;;;;;;;16.83;100.00;101945.59;5234095;28;20032;-82
2022/08/30 06:57:01;;;;;;;10.27;9.65;;;;;;;16.92;100.00;101943.16;5216603;28;20039;-82
2022/08/30 06:59:31;;;;;;;8.60;7.93;;;;;;;16.97;100.00;101942.34;5216111;28;20035;-83
2022/08/30 07:02:02;;;;;;;10.88;10.00;;;;;;;17.02;100.00;101939.63;5232177;28;20434;-82
2022/08/30 07:04:33;;;;;;;9.15;8.43;;;;;;;17.13;100.00;101941.25;5232507;28;20017;-81
2022/08/30 07:07:03;;;;;;;9.48;8.88;;;;;;;17.27;100.00;101950.53;5214977;28;20112;-81
2022/08/30 07:09:34;;;;;;;9.60;8.80;;;;;;;17.34;100.00;101953.78;5232492;28;20491;-82
2022/08/30 07:12:05;;;;;;;9.10;8.35;;;;;;;17.38;100.00;101940.41;5231171;28;20043;-81
2022/08/30 07:14:36;;;;;;;9.88;9.23;;;;;;;17.57;100.00;101957.06;5212043;28;20093;-79
2022/08/30 07:18:49;;;;;;;9.00;8.20;;;;;;;17.64;100.00;101952.91;5231265;28;20071;-80
2022/08/30 07:19:58;;;;;;;9.25;8.65;;;;;;;17.66;100.00;101933.56;5231221;28;20032;-80
2022/08/30 07:22:28;;;;;;;11.13;10.18;;;;;;;17.81;100.00;101939.81;5212494;28;20032;-80
2022/08/30 07:24:59;;;;;;;9.65;8.75;;;;;;;18.04;100.00;101949.28;5213747;28;20024;-81
2022/08/30 07:27:30;;;;;;;11.00;9.98;;;;;;;18.02;100.00;101932.34;5212403;28;20025;-83
2022/08/30 07:30:02;;;;;;;9.00;8.43;;;;;;;18.20;100.00;101959.03;5214179;28;20029;-81
2022/08/30 07:32:32;;;;;;;10.75;9.88;;;;;;;18.11;100.00;101921.66;5229520;28;20009;-81
2022/08/30 07:35:03;;;;;;;11.48;8.07;;;;;;;18.32;100.00;101944.22;5229961;28;20041;-82
2022/08/30 07:37:34;;;;;;;16.23;10.70;;;;;;;18.49;100.00;101955.59;5229827;28;20036;-82
2022/08/30 07:40:05;;;;;;;9.23;8.63;;;;;;;18.65;100.00;101957.19;5215340;28;20025;-81
2022/08/30 07:42:35;;;;;;;10.85;9.85;;;;;;;18.50;100.00;101913.47;5233865;28;20025;-82
2022/08/30 07:45:07;;;;;;;8.73;7.55;;;;;;;18.77;100.00;101934.94;5232868;28;20356;-81
2022/08/30 07:47:37;;;;;;;9.43;8.43;;;;;;;19.03;100.00;101932.84;5233090;28;20079;-82
2022/08/30 07:50:08;;;;;;;10.13;9.25;;;;;;;19.30;100.00;101949.59;5216037;28;20021;-82
2022/08/30 07:52:38;;;;;;;9.32;8.45;;;;;;;19.27;100.00;101952.91;5215506;28;20040;-81
2022/08/30 07:55:09;;;;;;;10.93;8.43;;;;;;;19.23;100.00;101929.91;5215865;28;20021;-81
2022/08/30 07:57:39;;;;;;;8.43;7.75;;;;;;;19.36;100.00;101962.09;5215331;28;20175;-81
2022/08/30 08:00:10;;;;;;;14.65;7.93;;;;;;;19.31;100.00;101955.88;5233248;28;20036;-82
2022/08/30 08:02:41;;;;;;;10.27;9.23;;;;;;;19.47;100.00;101943.66;5215275;28;20140;-81
2022/08/30 08:05:13;;;;;;;8.45;7.85;;;;;;;19.69;100.00;101945.91;5215655;28;20088;-81
2022/08/30 08:07:43;;;;;;;10.27;8.27;;;;;;;20.00;100.00;101949.94;5234146;28;20039;-81
2022/08/30 08:10:14;;;;;;;8.82;8.23;;;;;;;19.79;100.00;101940.34;5216208;28;20017;-81
2022/08/30 08:12:45;;;;;;;9.10;8.55;;;;;;;19.85;100.00;101948.22;5234550;28;20040;-82
2022/08/30 08:15:16;;;;;;;10.13;9.23;;;;;;;19.96;100.00;101957.13;5215250;28;20033;-81
2022/08/30 08:17:46;;;;;;;9.00;8.23;;;;;;;19.92;100.00;101941.56;5216103;28;20036;-82
2022/08/30 08:20:17;;;;;;;9.77;9.07;;;;;;;20.18;100.00;101954.66;5215033;28;20133;-82
2022/08/30 08:22:47;;;;;;;8.48;7.88;;;;;;;20.44;100.00;101946.94;5230921;28;20505;-81
2022/08/30 08:25:18;;;;;;;9.57;7.97;;;;;;;20.73;100.00;101955.03;5216330;28;20055;-81
2022/08/30 08:27:50;;;;;;;9.50;8.90;;;;;;;20.87;100.00;101955.88;5236924;28;20029;-82
2022/08/30 08:30:22;;;;;;;11.40;7.28;;;;;;;20.95;100.00;101967.31;5219929;28;20103;-82
2022/08/30 08:32:53;;;;;;;8.85;7.95;;;;;;;21.23;100.00;101961.66;5238102;28;20048;-82
2022/08/30 08:35:24;;;;;;;9.25;8.00;;;;;;;21.59;100.00;101954.69;5237333;28;20051;-81
2022/08/30 08:37:54;;;;;;;8.38;7.72;;;;;;;21.54;100.00;101953.66;5238501;28;20437;-80
2022/08/30 08:40:25;;;;;;;7.97;7.28;;;;;;;21.43;100.00;101930.22;5223025;28;20116;-80
2022/08/30 08:43:01;;;;;;;9.35;8.32;;;;;;;21.64;100.00;101962.84;5238021;28;20514;-81
2022/08/30 08:45:49;;;;;;;7.93;7.07;;;;;;;21.37;100.00;101947.09;5219086;28;20112;-82
2022/08/30 08:48:40;;;;;;;8.07;7.45;;;;;;;21.30;100.00;101947.53;5217448;28;20072;-82
2022/08/30 08:54:14;;;;;;;8.07;7.35;;;;;;;21.90;100.00;101945.56;5237886;28;20140;-80
2022/08/30 08:56:44;;;;;;;6.68;6.22;;;;;;;22.08;100.00;101952.09;5242464;28;20052;-79
2022/08/30 08:59:15;;;;;;;7.88;7.13;;;;;;;22.09;100.00;101958.41;5239744;28;20025;-81
2022/08/30 09:01:49;;;;;;;6.93;6.50;;;;;;;21.98;100.00;101960.50;5214773;28;20028;-79
2022/08/30 09:04:25;;;;;;;7.35;6.80;;;;;;;21.82;100.00;101957.25;5214430;28;20017;-79
2022/08/30 09:06:59;;;;;;;7.72;7.15;;;;;;;21.81;100.00;101947.38;5216418;28;20028;-80
2022/08/30 09:09:39;;;;;;;8.10;7.50;;;;;;;21.80;100.00;101953.19;5217475;28;20028;-79
2022/08/30 09:12:11;;;;;;;7.03;6.53;;;;;;;22.03;100.00;101954.94;5220087;28;20104;-81
2022/08/30 09:14:47;;;;;;;7.65;6.88;;;;;;;21.90;100.00;101922.75;5236750;28;20028;-80
2022/08/30 09:17:19;;;;;;;7.13;6.50;;;;;;;22.06;100.00;101948.00;5234359;28;20033;-81
2022/08/30 09:19:53;;;;;;;7.90;6.22;;;;;;;22.08;100.00;101960.34;5219214;28;20079;-79
2022/08/30 09:22:31;;;;;;;8.05;7.00;;;;;;;22.12;100.00;101964.09;5217368;28;20032;-82
2022/08/30 09:25:08;;;;;;;7.38;6.88;;;;;;;22.30;100.00;101954.09;5236008;28;20030;-83
2022/08/30 09:27:40;;;;;;;6.47;5.85;;;;;;;22.54;100.00;101953.81;5239053;28;20084;-80
2022/08/30 09:30:17;;;;;;;6.07;5.28;;;;;;;22.65;100.00;101959.91;5221507;28;20055;-79
2022/08/30 09:33:00;;;;;;;6.45;5.95;;;;;;;22.75;100.00;101955.00;5219373;28;20449;-83
2022/08/30 09:35:40;;;;;;;9.38;7.55;;;;;;;23.01;100.00;101955.22;5215985;28;20437;-81
2022/08/30 09:38:17;;;;;;;7.65;5.65;;;;;;;23.00;100.00;101964.63;5215498;28;20339;-82
2022/08/30 09:40:51;;;;;;;6.28;5.45;;;;;;;22.89;100.00;101943.94;5217429;28;20021;-82
2022/08/30 09:43:30;;;;;;;6.32;5.78;;;;;;;22.85;100.00;101952.00;5216684;28;20546;-85
2022/08/30 09:46:01;;;;;;;4.90;4.68;;;;;;;22.80;100.00;101963.19;5216576;28;20020;-82
2022/08/30 09:48:42;;;;;;;6.30;5.80;;;;;;;22.94;100.00;101957.59;5235383;28;20458;-82
2022/08/30 09:51:41;;;;;;;5.68;5.22;;;;;;;23.13;100.00;101966.47;5216173;28;20046;-82
2022/08/30 09:54:20;;;;;;;5.63;5.10;;;;;;;23.43;100.00;101953.84;5233620;28;20438;-82
2022/08/30 09:57:11;;;;;;;5.65;5.13;;;;;;;23.48;100.00;101942.69;5233100;28;20075;-81
2022/08/30 10:00:12;;;;;;;5.35;5.00;;;;;;;23.74;100.00;101926.28;5234411;28;20051;-81
2022/08/30 10:03:07;;;;;;;6.70;5.10;;;;;;;24.00;100.00;101928.31;5235447;28;20037;-82
2022/08/30 10:05:47;;;;;;;4.88;4.38;;;;;;;24.07;100.00;101948.78;5233194;28;20044;-81
2022/08/30 10:08:26;;;;;;;;;;;;;;;24.27;100.00;101949.31;5234079;28;20040;-82
2022/08/30 10:11:03;;;;;;;;;;;;;;;24.49;100.00;101940.94;5234000;28;19912;-82
2022/08/30 10:13:52;;;;;;;6.20;5.75;;;;;;;24.26;100.00;101942.19;5232334;28;19978;-81
2022/08/30 10:16:41;;;;;;;5.10;4.72;;;;;;;24.00;100.00;101942.91;5231956;28;20032;-79
2022/08/30 10:19:18;;;;;;;5.25;4.53;;;;;;;24.26;100.00;101942.19;5231156;28;20048;-82
2022/08/30 10:22:00;;;;;;;5.82;5.03;;;;;;;24.54;100.00;101938.00;5232064;28;20100;-84
2022/08/30 10:24:41;;;;;;;4.20;4.00;;;;;;;24.54;100.00;101943.53;5232782;28;20036;-84
2022/08/30 10:27:20;;;;;;;4.82;4.50;;;;;;;24.53;100.00;101934.44;5211497;28;20051;-81
2022/08/30 10:29:58;;;;;;;7.95;4.68;;;;;;;24.67;100.00;101937.03;5231020;28;20029;-80
2022/08/30 10:32:36;;;;;;;9.07;4.47;;;;;;;24.74;100.00;101934.59;5214050;28;20197;-82
2022/08/30 10:35:15;;;;;;;9.70;5.63;;;;;;;24.85;100.00;101927.56;5214761;28;20085;-83
2022/08/30 10:38:02;;;;;;;6.10;5.13;;;;;;;24.44;100.00;101914.28;5215330;28;20059;-82
2022/08/30 10:43:43;;;;;;;6.43;6.03;;;;;;;24.62;100.00;101928.91;5232007;28;20028;-82
2022/08/30 10:46:28;;;;;;;3.42;3.17;;;;;;;24.39;100.00;101941.25;5233210;28;20041;-84
2022/08/30 10:51:43;;;;;;;3.83;3.63;;;;;;;24.27;100.00;101933.56;5254051;22;20195;-63
2022/08/30 10:54:31;;;;;;;5.22;4.93;;;;;;;24.43;100.00;101925.66;5239264;28;20365;-62
2022/08/30 10:57:01;;;;;;;11.77;5.45;;;;;;;24.46;100.00;101925.81;5245456;28;20442;-65
2022/08/30 10:59:36;;;;;;;5.55;5.07;;;;;;;24.53;100.00;101919.81;5245918;28;20073;-63
2022/08/30 11:02:34;;;;;;;6.07;4.90;;;;;;;24.79;100.00;101915.09;5246266;28;20054;-64
2022/08/30 11:05:44;;;;;;;3.65;3.25;;;;;;;24.88;100.00;101917.81;5245953;28;20128;-64
2022/08/30 11:08:23;;;;;;;5.72;4.68;;;;;;;24.97;99.76;101913.13;5245983;28;20073;-65
2022/08/30 11:11:11;;;;;;;5.40;5.05;;;;;;;25.01;97.53;101918.81;5246059;28;20119;-65
2022/08/30 11:13:44;;;;;;;5.80;4.15;;;;;;;24.72;95.85;101902.91;5245778;28;20111;-65
2022/08/30 11:16:17;;;;;;;4.30;3.90;;;;;;;24.53;98.02;101917.88;5246286;28;20029;-65
2022/08/30 11:18:51;;;;;;;6.25;3.53;;;;;;;24.53;99.17;101906.81;5244585;28;20024;-68
2022/08/30 11:21:35;;;;;;;4.47;4.18;;;;;;;24.69;98.98;101909.91;5244365;28;20020;-65
2022/08/30 11:24:21;;;;;;;4.13;3.88;;;;;;;24.78;98.97;101905.19;5245443;28;20369;-64
2022/08/30 11:26:59;;;;;;;5.85;3.45;;;;;;;24.93;96.66;101903.84;5245674;28;20424;-65
2022/08/30 11:29:43;;;;;;;4.07;3.80;;;;;;;25.05;93.82;101900.44;5245356;28;20273;-65
2022/08/30 11:32:16;;;;;;;2.95;2.85;;;;;;;25.23;91.80;101899.25;5245779;28;20054;-62
2022/08/30 11:34:46;;;;;;;11.00;3.78;;;;;;;25.17;93.58;101898.59;5244439;28;20036;-63
2022/08/30 11:37:36;;;;;;;15.80;4.60;;;;;;;25.25;94.55;101902.50;5244817;28;20043;-64
2022/08/30 11:40:18;;;;;;;5.95;3.22;;;;;;;25.61;93.68;101896.50;5245470;28;20318;-65
2022/08/30 11:42:51;;;;;;;6.55;3.85;;;;;;;25.68;88.47;101894.06;5245065;28;20369;-62
2022/08/30 11:45:21;;;;;;;2.92;2.83;;;;;;;25.53;87.25;101898.16;5244314;28;20032;-64
2022/08/30 11:47:53;;;;;;;4.45;3.75;;;;;;;25.62;88.43;101897.31;5245025;28;20721;-64
2022/08/30 11:50:27;;;;;;;5.65;3.65;;;;;;;25.79;87.65;101894.47;5244684;28;20033;-65
2022/08/30 11:53:16;;;;;;;3.17;2.83;;;;;;;25.74;86.18;101897.44;5244949;28;20112;-63
2022/08/30 11:55:46;;;;;;;;;;;;;;;25.63;88.50;101894.25;5245318;28;20476;-63
2022/08/30 11:58:16;;;;;;;3.28;3.05;;;;;;;25.68;87.50;101891.31;5246789;28;19915;-65